Hauptseite
METAR-TAF:

METAR-TAF

Flughäfen :

Flughafen Lwiw

Lemberg, Ukraine

Breite: 49-49N, Länge: 023-57E, Höhe: 319 m

Beobachtung

Neuester Wetterbericht von vor 16 Minuten, um 22:30 UTC
Windstille
Temperatur 5°C
Luftfeuchtigkeit 75%
Luftdruck 1024 hPa
Sichtweite 10 km oder mehr
keine Wolken unter 1500 m und keine Kumulonimbus oder Gewitterwolken

METAR: UKLL 082230Z 00000MPS CAVOK 05/01 Q1024 R31/D NOSIG

Zeit: 01:46 (22:46 UTC)

Prognose

Neuester Wetterbericht von vor 5 Stunden und 44 Minuten, um 17:02 UTC
Gültige Prognose vom 08 um 18 UTC bis 09 um 18 UTC
Wind 2 kt aus unterschiedlichen Richtungen
Sichtweite 10 km oder mehr
keine Wolken unter 1500 m und keine Kumulonimbus oder Gewitterwolken
Übergehend zu
vom 09 um 09 UTC bis 09 um 10 UTC
Wind 12 kt aus West, Böen bis zu 25 kt

TAF: UKLL 081702Z 0818/0918 VRB01MPS CAVOK TX19/0912Z TN03/0903Z BECMG 0909/0910 27006G13MPS

Wetterbeobachtungen und Prognosen von mehr als 4000 Flughäfen (METAR und TAF Bericht).

Die verfügbaren Stationen werden durch gelbe und rote Markierungen auf der Karte dargestellt.

Führen Sie die Maus auf sie, um den Namen der Station zu sehen.

Darauf klicken, um die Beobachtung von Wetterbeobachtungen und Prognosen zu sehen.

Um die Karte zu ändern : klicken Sie auf den grünen Tasten mit einem schwarzen Kreuz Zum Vergrößern, auf den grünen Button mit einem Gedankenstrich zu verkleinern, oder auf die grünen Pfeile für benachbarte Karten.


METAR-TAF: